sensor_id;sensor_type;location;lat;lon;timestamp;P1;durP1;ratioP1;P2;durP2;ratioP2
10645;SDS011;5371;49.782;9.932;2024-01-07T00:01:45;17.03;;;9.87;;
10645;SDS011;5371;49.782;9.932;2024-01-07T00:04:14;13.63;;;10.03;;
10645;SDS011;5371;49.782;9.932;2024-01-07T00:06:42;14.93;;;9.00;;
10645;SDS011;5371;49.782;9.932;2024-01-07T00:09:10;14.97;;;8.57;;
10645;SDS011;5371;49.782;9.932;2024-01-07T00:11:37;12.87;;;9.00;;
10645;SDS011;5371;49.782;9.932;2024-01-07T00:14:04;13.40;;;8.47;;
10645;SDS011;5371;49.782;9.932;2024-01-07T00:16:31;11.13;;;8.70;;
10645;SDS011;5371;49.782;9.932;2024-01-07T00:18:58;14.00;;;8.87;;
10645;SDS011;5371;49.782;9.932;2024-01-07T00:21:25;11.33;;;8.00;;
10645;SDS011;5371;49.782;9.932;2024-01-07T00:23:54;16.03;;;8.67;;
10645;SDS011;5371;49.782;9.932;2024-01-07T00:26:21;12.97;;;8.47;;
10645;SDS011;5371;49.782;9.932;2024-01-07T00:28:48;13.30;;;8.17;;
10645;SDS011;5371;49.782;9.932;2024-01-07T00:31:15;15.60;;;9.40;;
10645;SDS011;5371;49.782;9.932;2024-01-07T00:33:42;13.83;;;8.13;;
10645;SDS011;5371;49.782;9.932;2024-01-07T00:36:09;14.70;;;8.83;;
10645;SDS011;5371;49.782;9.932;2024-01-07T00:38:35;13.60;;;8.30;;
10645;SDS011;5371;49.782;9.932;2024-01-07T00:41:04;12.80;;;8.90;;
10645;SDS011;5371;49.782;9.932;2024-01-07T00:43:31;14.63;;;8.50;;
10645;SDS011;5371;49.782;9.932;2024-01-07T00:45:58;13.83;;;8.67;;
10645;SDS011;5371;49.782;9.932;2024-01-07T00:48:25;12.90;;;8.60;;
10645;SDS011;5371;49.782;9.932;2024-01-07T00:50:52;13.47;;;8.67;;
10645;SDS011;5371;49.782;9.932;2024-01-07T00:53:20;11.90;;;7.67;;
10645;SDS011;5371;49.782;9.932;2024-01-07T00:55:47;15.63;;;8.20;;
10645;SDS011;5371;49.782;9.932;2024-01-07T00:58:15;14.83;;;7.90;;
10645;SDS011;5371;49.782;9.932;2024-01-07T01:00:43;11.90;;;8.13;;
10645;SDS011;5371;49.782;9.932;2024-01-07T01:03:13;13.37;;;8.60;;
10645;SDS011;5371;49.782;9.932;2024-01-07T01:05:40;11.20;;;7.87;;
10645;SDS011;5371;49.782;9.932;2024-01-07T01:08:07;11.37;;;8.33;;
10645;SDS011;5371;49.782;9.932;2024-01-07T01:10:34;11.70;;;8.00;;
10645;SDS011;5371;49.782;9.932;2024-01-07T01:13:01;10.53;;;8.10;;
10645;SDS011;5371;49.782;9.932;2024-01-07T01:15:29;12.50;;;8.43;;
10645;SDS011;5371;49.782;9.932;2024-01-07T01:17:56;13.10;;;8.97;;
10645;SDS011;5371;49.782;9.932;2024-01-07T01:20:23;14.63;;;8.07;;
10645;SDS011;5371;49.782;9.932;2024-01-07T01:22:50;12.03;;;7.80;;
10645;SDS011;5371;49.782;9.932;2024-01-07T01:25:17;12.60;;;8.10;;
10645;SDS011;5371;49.782;9.932;2024-01-07T01:27:44;11.97;;;8.17;;
10645;SDS011;5371;49.782;9.932;2024-01-07T01:30:11;12.70;;;8.20;;
10645;SDS011;5371;49.782;9.932;2024-01-07T01:32:41;11.90;;;8.23;;
10645;SDS011;5371;49.782;9.932;2024-01-07T01:35:08;17.03;;;8.37;;
10645;SDS011;5371;49.782;9.932;2024-01-07T01:37:35;16.70;;;9.03;;
10645;SDS011;5371;49.782;9.932;2024-01-07T01:40:02;14.10;;;8.20;;
10645;SDS011;5371;49.782;9.932;2024-01-07T01:42:30;11.93;;;8.60;;
10645;SDS011;5371;49.782;9.932;2024-01-07T01:44:57;15.73;;;8.73;;
10645;SDS011;5371;49.782;9.932;2024-01-07T01:47:27;15.87;;;9.60;;
10645;SDS011;5371;49.782;9.932;2024-01-07T01:49:56;12.63;;;9.07;;
10645;SDS011;5371;49.782;9.932;2024-01-07T01:52:23;14.50;;;9.23;;
10645;SDS011;5371;49.782;9.932;2024-01-07T01:54:50;13.23;;;8.50;;
10645;SDS011;5371;49.782;9.932;2024-01-07T01:57:19;15.80;;;9.43;;
10645;SDS011;5371;49.782;9.932;2024-01-07T01:59:48;14.93;;;9.13;;
10645;SDS011;5371;49.782;9.932;2024-01-07T02:02:15;14.83;;;9.03;;
10645;SDS011;5371;49.782;9.932;2024-01-07T02:04:42;13.73;;;8.03;;
10645;SDS011;5371;49.782;9.932;2024-01-07T02:07:10;14.33;;;9.40;;
10645;SDS011;5371;49.782;9.932;2024-01-07T02:09:39;13.40;;;8.83;;
10645;SDS011;5371;49.782;9.932;2024-01-07T02:12:06;12.20;;;8.57;;
10645;SDS011;5371;49.782;9.932;2024-01-07T02:14:37;14.37;;;8.83;;
10645;SDS011;5371;49.782;9.932;2024-01-07T02:17:04;14.80;;;8.97;;
10645;SDS011;5371;49.782;9.932;2024-01-07T02:19:32;13.50;;;9.07;;
10645;SDS011;5371;49.782;9.932;2024-01-07T02:21:59;12.13;;;8.67;;
10645;SDS011;5371;49.782;9.932;2024-01-07T02:24:27;13.60;;;9.13;;
10645;SDS011;5371;49.782;9.932;2024-01-07T02:26:56;13.33;;;8.37;;
10645;SDS011;5371;49.782;9.932;2024-01-07T02:29:24;12.90;;;8.40;;
10645;SDS011;5371;49.782;9.932;2024-01-07T02:31:51;12.33;;;8.50;;
10645;SDS011;5371;49.782;9.932;2024-01-07T02:34:18;14.07;;;9.00;;
10645;SDS011;5371;49.782;9.932;2024-01-07T02:36:45;13.20;;;8.80;;
10645;SDS011;5371;49.782;9.932;2024-01-07T02:39:12;14.87;;;8.80;;
10645;SDS011;5371;49.782;9.932;2024-01-07T02:41:40;13.77;;;8.33;;
10645;SDS011;5371;49.782;9.932;2024-01-07T02:44:07;15.00;;;9.17;;
10645;SDS011;5371;49.782;9.932;2024-01-07T02:46:34;10.47;;;7.50;;
10645;SDS011;5371;49.782;9.932;2024-01-07T02:49:01;11.50;;;7.83;;
10645;SDS011;5371;49.782;9.932;2024-01-07T02:51:28;11.73;;;7.10;;
10645;SDS011;5371;49.782;9.932;2024-01-07T02:53:55;10.10;;;7.33;;
10645;SDS011;5371;49.782;9.932;2024-01-07T02:56:23;11.87;;;7.33;;
10645;SDS011;5371;49.782;9.932;2024-01-07T02:58:51;9.20;;;7.03;;
10645;SDS011;5371;49.782;9.932;2024-01-07T03:01:21;10.07;;;7.00;;
10645;SDS011;5371;49.782;9.932;2024-01-07T03:03:48;9.23;;;6.70;;
10645;SDS011;5371;49.782;9.932;2024-01-07T03:06:15;10.80;;;7.13;;
10645;SDS011;5371;49.782;9.932;2024-01-07T03:08:42;9.10;;;6.57;;
10645;SDS011;5371;49.782;9.932;2024-01-07T03:11:09;9.60;;;6.60;;
10645;SDS011;5371;49.782;9.932;2024-01-07T03:13:36;9.37;;;7.07;;
10645;SDS011;5371;49.782;9.932;2024-01-07T03:16:05;10.90;;;6.63;;
10645;SDS011;5371;49.782;9.932;2024-01-07T03:18:33;10.07;;;6.63;;
10645;SDS011;5371;49.782;9.932;2024-01-07T03:21:00;10.60;;;7.17;;
10645;SDS011;5371;49.782;9.932;2024-01-07T03:23:26;10.57;;;6.83;;
10645;SDS011;5371;49.782;9.932;2024-01-07T03:25:53;9.50;;;6.97;;
10645;SDS011;5371;49.782;9.932;2024-01-07T03:28:20;10.27;;;6.87;;
10645;SDS011;5371;49.782;9.932;2024-01-07T03:30:47;9.53;;;6.30;;
10645;SDS011;5371;49.782;9.932;2024-01-07T03:33:16;8.93;;;6.30;;
10645;SDS011;5371;49.782;9.932;2024-01-07T03:35:43;10.40;;;6.40;;
10645;SDS011;5371;49.782;9.932;2024-01-07T03:38:11;11.00;;;6.47;;
10645;SDS011;5371;49.782;9.932;2024-01-07T03:40:38;8.03;;;6.20;;
10645;SDS011;5371;49.782;9.932;2024-01-07T03:43:05;11.30;;;7.00;;
10645;SDS011;5371;49.782;9.932;2024-01-07T03:45:31;11.30;;;6.70;;
10645;SDS011;5371;49.782;9.932;2024-01-07T03:47:58;10.87;;;6.67;;
10645;SDS011;5371;49.782;9.932;2024-01-07T03:50:27;11.27;;;6.77;;
10645;SDS011;5371;49.782;9.932;2024-01-07T03:52:54;10.00;;;6.63;;
10645;SDS011;5371;49.782;9.932;2024-01-07T03:55:20;11.70;;;7.30;;
10645;SDS011;5371;49.782;9.932;2024-01-07T03:57:47;12.27;;;7.47;;
10645;SDS011;5371;49.782;9.932;2024-01-07T04:00:14;11.43;;;7.40;;
10645;SDS011;5371;49.782;9.932;2024-01-07T04:02:41;11.23;;;6.97;;
10645;SDS011;5371;49.782;9.932;2024-01-07T04:05:09;10.30;;;7.27;;
10645;SDS011;5371;49.782;9.932;2024-01-07T04:07:37;11.07;;;6.87;;
10645;SDS011;5371;49.782;9.932;2024-01-07T04:10:05;10.03;;;7.17;;
10645;SDS011;5371;49.782;9.932;2024-01-07T04:12:32;12.37;;;7.17;;
10645;SDS011;5371;49.782;9.932;2024-01-07T04:14:59;11.70;;;7.27;;
10645;SDS011;5371;49.782;9.932;2024-01-07T04:17:26;13.13;;;7.77;;
10645;SDS011;5371;49.782;9.932;2024-01-07T04:19:53;12.07;;;7.73;;
10645;SDS011;5371;49.782;9.932;2024-01-07T04:22:20;11.60;;;8.27;;
10645;SDS011;5371;49.782;9.932;2024-01-07T04:24:48;10.63;;;7.20;;
10645;SDS011;5371;49.782;9.932;2024-01-07T04:27:15;12.87;;;7.40;;
10645;SDS011;5371;49.782;9.932;2024-01-07T04:29:42;10.63;;;7.30;;
10645;SDS011;5371;49.782;9.932;2024-01-07T04:32:26;11.77;;;8.10;;
10645;SDS011;5371;49.782;9.932;2024-01-07T04:34:53;12.80;;;7.87;;
10645;SDS011;5371;49.782;9.932;2024-01-07T04:37:20;12.23;;;7.63;;
10645;SDS011;5371;49.782;9.932;2024-01-07T04:39:47;11.60;;;7.33;;
10645;SDS011;5371;49.782;9.932;2024-01-07T04:42:14;10.70;;;7.17;;
10645;SDS011;5371;49.782;9.932;2024-01-07T04:44:41;12.17;;;7.10;;
10645;SDS011;5371;49.782;9.932;2024-01-07T04:47:22;9.83;;;6.20;;
10645;SDS011;5371;49.782;9.932;2024-01-07T04:49:51;10.60;;;6.50;;
10645;SDS011;5371;49.782;9.932;2024-01-07T04:52:18;10.20;;;6.23;;
10645;SDS011;5371;49.782;9.932;2024-01-07T04:54:45;10.63;;;6.43;;
10645;SDS011;5371;49.782;9.932;2024-01-07T04:57:12;9.17;;;6.10;;
10645;SDS011;5371;49.782;9.932;2024-01-07T04:59:38;10.27;;;6.23;;
10645;SDS011;5371;49.782;9.932;2024-01-07T05:02:06;9.73;;;6.13;;
10645;SDS011;5371;49.782;9.932;2024-01-07T05:04:33;10.80;;;6.13;;
10645;SDS011;5371;49.782;9.932;2024-01-07T05:07:01;9.60;;;6.20;;
10645;SDS011;5371;49.782;9.932;2024-01-07T05:09:28;8.40;;;5.97;;
10645;SDS011;5371;49.782;9.932;2024-01-07T05:11:55;10.00;;;6.40;;
10645;SDS011;5371;49.782;9.932;2024-01-07T05:14:22;11.57;;;7.23;;
10645;SDS011;5371;49.782;9.932;2024-01-07T05:16:49;10.70;;;7.30;;
10645;SDS011;5371;49.782;9.932;2024-01-07T05:19:16;9.67;;;7.00;;
10645;SDS011;5371;49.782;9.932;2024-01-07T05:21:43;10.50;;;6.67;;
10645;SDS011;5371;49.782;9.932;2024-01-07T05:24:11;9.87;;;6.10;;
10645;SDS011;5371;49.782;9.932;2024-01-07T05:26:38;10.87;;;6.63;;
10645;SDS011;5371;49.782;9.932;2024-01-07T05:29:05;10.93;;;6.60;;
10645;SDS011;5371;49.782;9.932;2024-01-07T05:31:32;10.07;;;6.53;;
10645;SDS011;5371;49.782;9.932;2024-01-07T05:33:59;7.40;;;4.80;;
10645;SDS011;5371;49.782;9.932;2024-01-07T05:36:26;7.47;;;4.87;;
10645;SDS011;5371;49.782;9.932;2024-01-07T05:38:53;5.67;;;3.80;;
10645;SDS011;5371;49.782;9.932;2024-01-07T05:41:22;5.73;;;4.40;;
10645;SDS011;5371;49.782;9.932;2024-01-07T05:43:48;5.23;;;4.03;;
10645;SDS011;5371;49.782;9.932;2024-01-07T05:46:16;6.90;;;3.93;;
10645;SDS011;5371;49.782;9.932;2024-01-07T05:48:43;5.43;;;4.20;;
10645;SDS011;5371;49.782;9.932;2024-01-07T05:51:11;5.97;;;4.00;;
10645;SDS011;5371;49.782;9.932;2024-01-07T05:53:39;5.20;;;3.93;;
10645;SDS011;5371;49.782;9.932;2024-01-07T05:56:06;5.70;;;4.13;;
10645;SDS011;5371;49.782;9.932;2024-01-07T05:58:34;6.60;;;4.27;;
10645;SDS011;5371;49.782;9.932;2024-01-07T06:01:01;5.57;;;4.20;;
10645;SDS011;5371;49.782;9.932;2024-01-07T06:03:28;6.10;;;4.47;;
10645;SDS011;5371;49.782;9.932;2024-01-07T06:05:55;5.90;;;4.13;;
10645;SDS011;5371;49.782;9.932;2024-01-07T06:08:22;5.60;;;4.10;;
10645;SDS011;5371;49.782;9.932;2024-01-07T06:10:49;5.83;;;4.27;;
10645;SDS011;5371;49.782;9.932;2024-01-07T06:13:16;5.07;;;3.80;;
10645;SDS011;5371;49.782;9.932;2024-01-07T06:15:45;4.90;;;3.70;;
10645;SDS011;5371;49.782;9.932;2024-01-07T06:18:12;6.33;;;4.27;;
10645;SDS011;5371;49.782;9.932;2024-01-07T06:20:38;5.60;;;3.93;;
10645;SDS011;5371;49.782;9.932;2024-01-07T06:23:05;5.13;;;3.77;;
10645;SDS011;5371;49.782;9.932;2024-01-07T06:25:33;5.93;;;4.07;;
10645;SDS011;5371;49.782;9.932;2024-01-07T06:28:00;5.10;;;3.80;;
10645;SDS011;5371;49.782;9.932;2024-01-07T06:30:27;6.17;;;4.13;;
10645;SDS011;5371;49.782;9.932;2024-01-07T06:32:55;5.60;;;4.20;;
10645;SDS011;5371;49.782;9.932;2024-01-07T06:35:22;5.80;;;4.23;;
10645;SDS011;5371;49.782;9.932;2024-01-07T06:37:49;4.80;;;3.50;;
10645;SDS011;5371;49.782;9.932;2024-01-07T06:40:16;5.53;;;3.70;;
10645;SDS011;5371;49.782;9.932;2024-01-07T06:42:43;6.10;;;3.90;;
10645;SDS011;5371;49.782;9.932;2024-01-07T06:45:10;5.33;;;3.27;;
10645;SDS011;5371;49.782;9.932;2024-01-07T06:47:37;5.13;;;3.80;;
10645;SDS011;5371;49.782;9.932;2024-01-07T06:50:06;5.77;;;3.63;;
10645;SDS011;5371;49.782;9.932;2024-01-07T06:52:33;5.50;;;3.67;;
10645;SDS011;5371;49.782;9.932;2024-01-07T06:54:59;5.97;;;4.07;;
10645;SDS011;5371;49.782;9.932;2024-01-07T06:57:26;5.73;;;3.90;;
10645;SDS011;5371;49.782;9.932;2024-01-07T06:59:53;5.67;;;3.73;;
10645;SDS011;5371;49.782;9.932;2024-01-07T07:02:20;6.90;;;4.50;;
10645;SDS011;5371;49.782;9.932;2024-01-07T07:04:47;6.33;;;4.37;;
10645;SDS011;5371;49.782;9.932;2024-01-07T07:07:15;6.33;;;3.90;;
10645;SDS011;5371;49.782;9.932;2024-01-07T07:09:42;6.97;;;4.27;;
10645;SDS011;5371;49.782;9.932;2024-01-07T07:12:08;9.87;;;6.10;;
10645;SDS011;5371;49.782;9.932;2024-01-07T07:14:35;10.60;;;6.73;;
10645;SDS011;5371;49.782;9.932;2024-01-07T07:17:02;11.20;;;6.60;;
10645;SDS011;5371;49.782;9.932;2024-01-07T07:19:30;9.40;;;6.03;;
10645;SDS011;5371;49.782;9.932;2024-01-07T07:21:56;8.53;;;5.90;;
10645;SDS011;5371;49.782;9.932;2024-01-07T07:24:25;9.30;;;6.03;;
10645;SDS011;5371;49.782;9.932;2024-01-07T07:26:52;9.67;;;6.00;;
10645;SDS011;5371;49.782;9.932;2024-01-07T07:29:19;7.43;;;4.97;;
10645;SDS011;5371;49.782;9.932;2024-01-07T07:31:46;6.33;;;4.47;;
10645;SDS011;5371;49.782;9.932;2024-01-07T07:34:13;7.23;;;4.60;;
10645;SDS011;5371;49.782;9.932;2024-01-07T07:36:39;6.70;;;4.23;;
10645;SDS011;5371;49.782;9.932;2024-01-07T07:39:08;7.47;;;4.47;;
10645;SDS011;5371;49.782;9.932;2024-01-07T07:41:37;7.57;;;4.77;;
10645;SDS011;5371;49.782;9.932;2024-01-07T07:44:06;8.13;;;4.63;;
10645;SDS011;5371;49.782;9.932;2024-01-07T07:46:33;6.47;;;4.50;;
10645;SDS011;5371;49.782;9.932;2024-01-07T07:49:00;7.67;;;4.73;;
10645;SDS011;5371;49.782;9.932;2024-01-07T07:51:27;7.23;;;4.67;;
10645;SDS011;5371;49.782;9.932;2024-01-07T07:53:55;6.50;;;4.10;;
10645;SDS011;5371;49.782;9.932;2024-01-07T07:56:22;7.13;;;4.60;;
10645;SDS011;5371;49.782;9.932;2024-01-07T07:58:51;6.80;;;4.43;;
10645;SDS011;5371;49.782;9.932;2024-01-07T08:01:17;6.50;;;4.30;;
10645;SDS011;5371;49.782;9.932;2024-01-07T08:03:44;6.57;;;4.70;;
10645;SDS011;5371;49.782;9.932;2024-01-07T08:06:11;5.77;;;4.20;;
10645;SDS011;5371;49.782;9.932;2024-01-07T08:08:38;7.17;;;4.83;;
10645;SDS011;5371;49.782;9.932;2024-01-07T08:11:05;6.60;;;4.63;;
10645;SDS011;5371;49.782;9.932;2024-01-07T08:13:34;6.97;;;4.50;;
10645;SDS011;5371;49.782;9.932;2024-01-07T08:16:03;7.40;;;4.83;;
10645;SDS011;5371;49.782;9.932;2024-01-07T08:18:31;7.00;;;4.83;;
10645;SDS011;5371;49.782;9.932;2024-01-07T08:20:58;7.27;;;5.17;;
10645;SDS011;5371;49.782;9.932;2024-01-07T08:23:25;8.47;;;5.27;;
10645;SDS011;5371;49.782;9.932;2024-01-07T08:25:52;7.13;;;5.40;;
10645;SDS011;5371;49.782;9.932;2024-01-07T08:28:20;7.93;;;5.23;;
10645;SDS011;5371;49.782;9.932;2024-01-07T08:30:47;7.20;;;4.90;;
10645;SDS011;5371;49.782;9.932;2024-01-07T08:33:18;7.33;;;5.13;;
10645;SDS011;5371;49.782;9.932;2024-01-07T08:35:45;8.40;;;5.30;;
10645;SDS011;5371;49.782;9.932;2024-01-07T08:38:14;7.70;;;5.10;;
10645;SDS011;5371;49.782;9.932;2024-01-07T08:40:41;8.63;;;5.70;;
10645;SDS011;5371;49.782;9.932;2024-01-07T08:43:08;7.40;;;5.03;;
10645;SDS011;5371;49.782;9.932;2024-01-07T08:45:35;7.57;;;5.60;;
10645;SDS011;5371;49.782;9.932;2024-01-07T08:48:02;7.83;;;5.10;;
10645;SDS011;5371;49.782;9.932;2024-01-07T08:50:31;7.10;;;5.10;;
10645;SDS011;5371;49.782;9.932;2024-01-07T08:52:58;7.53;;;5.63;;
10645;SDS011;5371;49.782;9.932;2024-01-07T08:55:24;7.87;;;5.67;;
10645;SDS011;5371;49.782;9.932;2024-01-07T08:57:52;8.50;;;5.27;;
10645;SDS011;5371;49.782;9.932;2024-01-07T09:00:19;7.70;;;5.37;;
10645;SDS011;5371;49.782;9.932;2024-01-07T09:02:51;7.27;;;5.13;;
10645;SDS011;5371;49.782;9.932;2024-01-07T09:05:18;10.10;;;5.47;;
10645;SDS011;5371;49.782;9.932;2024-01-07T09:07:46;8.63;;;5.50;;
10645;SDS011;5371;49.782;9.932;2024-01-07T09:10:13;8.80;;;5.53;;
10645;SDS011;5371;49.782;9.932;2024-01-07T09:12:41;7.63;;;5.50;;
10645;SDS011;5371;49.782;9.932;2024-01-07T09:15:08;6.93;;;5.23;;
10645;SDS011;5371;49.782;9.932;2024-01-07T09:17:35;9.00;;;6.00;;
10645;SDS011;5371;49.782;9.932;2024-01-07T09:20:03;8.60;;;5.40;;
10645;SDS011;5371;49.782;9.932;2024-01-07T09:22:32;9.63;;;5.53;;
10645;SDS011;5371;49.782;9.932;2024-01-07T09:25:02;9.27;;;5.67;;
10645;SDS011;5371;49.782;9.932;2024-01-07T09:27:29;11.13;;;6.90;;
10645;SDS011;5371;49.782;9.932;2024-01-07T09:29:56;9.80;;;6.27;;
10645;SDS011;5371;49.782;9.932;2024-01-07T09:32:24;7.67;;;5.40;;
10645;SDS011;5371;49.782;9.932;2024-01-07T09:34:51;10.47;;;5.83;;
10645;SDS011;5371;49.782;9.932;2024-01-07T09:37:18;9.83;;;5.77;;
10645;SDS011;5371;49.782;9.932;2024-01-07T09:39:46;12.23;;;5.93;;
10645;SDS011;5371;49.782;9.932;2024-01-07T09:42:15;8.17;;;5.63;;
10645;SDS011;5371;49.782;9.932;2024-01-07T09:44:43;9.40;;;6.37;;
10645;SDS011;5371;49.782;9.932;2024-01-07T09:47:11;9.33;;;5.73;;
10645;SDS011;5371;49.782;9.932;2024-01-07T09:49:39;9.27;;;5.87;;
10645;SDS011;5371;49.782;9.932;2024-01-07T09:52:06;9.70;;;6.40;;
10645;SDS011;5371;49.782;9.932;2024-01-07T09:54:35;10.13;;;6.33;;
10645;SDS011;5371;49.782;9.932;2024-01-07T09:57:04;10.37;;;6.33;;
10645;SDS011;5371;49.782;9.932;2024-01-07T09:59:34;10.50;;;6.57;;
10645;SDS011;5371;49.782;9.932;2024-01-07T10:02:02;9.57;;;7.00;;
10645;SDS011;5371;49.782;9.932;2024-01-07T10:04:29;10.40;;;6.90;;
10645;SDS011;5371;49.782;9.932;2024-01-07T10:06:56;11.93;;;7.03;;
10645;SDS011;5371;49.782;9.932;2024-01-07T10:09:24;9.40;;;6.40;;
10645;SDS011;5371;49.782;9.932;2024-01-07T10:11:52;9.43;;;6.60;;
10645;SDS011;5371;49.782;9.932;2024-01-07T10:14:19;12.17;;;6.80;;
10645;SDS011;5371;49.782;9.932;2024-01-07T10:16:49;10.00;;;6.77;;
10645;SDS011;5371;49.782;9.932;2024-01-07T10:19:19;12.20;;;7.63;;
10645;SDS011;5371;49.782;9.932;2024-01-07T10:21:52;9.37;;;6.53;;
10645;SDS011;5371;49.782;9.932;2024-01-07T10:24:25;12.87;;;6.40;;
10645;SDS011;5371;49.782;9.932;2024-01-07T10:26:52;10.93;;;7.00;;
10645;SDS011;5371;49.782;9.932;2024-01-07T10:29:19;10.60;;;6.80;;
10645;SDS011;5371;49.782;9.932;2024-01-07T10:31:48;10.80;;;6.97;;
10645;SDS011;5371;49.782;9.932;2024-01-07T10:34:15;9.60;;;6.23;;
10645;SDS011;5371;49.782;9.932;2024-01-07T10:36:43;11.50;;;6.90;;
10645;SDS011;5371;49.782;9.932;2024-01-07T10:39:11;9.77;;;6.23;;
10645;SDS011;5371;49.782;9.932;2024-01-07T10:41:40;11.97;;;7.13;;
10645;SDS011;5371;49.782;9.932;2024-01-07T10:44:08;9.37;;;6.40;;
10645;SDS011;5371;49.782;9.932;2024-01-07T10:46:35;13.53;;;6.63;;
10645;SDS011;5371;49.782;9.932;2024-01-07T10:49:07;11.17;;;6.37;;
10645;SDS011;5371;49.782;9.932;2024-01-07T10:51:40;10.23;;;6.43;;
10645;SDS011;5371;49.782;9.932;2024-01-07T10:54:07;10.60;;;6.97;;
10645;SDS011;5371;49.782;9.932;2024-01-07T10:56:38;9.37;;;6.67;;
10645;SDS011;5371;49.782;9.932;2024-01-07T10:59:06;10.00;;;6.30;;
10645;SDS011;5371;49.782;9.932;2024-01-07T11:01:32;10.70;;;6.20;;
10645;SDS011;5371;49.782;9.932;2024-01-07T11:04:01;9.00;;;6.00;;
10645;SDS011;5371;49.782;9.932;2024-01-07T11:06:33;10.30;;;6.77;;
10645;SDS011;5371;49.782;9.932;2024-01-07T11:09:03;10.53;;;6.53;;
10645;SDS011;5371;49.782;9.932;2024-01-07T11:11:36;8.67;;;6.07;;
10645;SDS011;5371;49.782;9.932;2024-01-07T11:14:12;9.90;;;6.20;;
10645;SDS011;5371;49.782;9.932;2024-01-07T11:17:04;9.93;;;6.30;;
10645;SDS011;5371;49.782;9.932;2024-01-07T11:19:31;9.30;;;6.20;;
10645;SDS011;5371;49.782;9.932;2024-01-07T11:24:53;10.50;;;6.53;;
10645;SDS011;5371;49.782;9.932;2024-01-07T11:27:21;11.83;;;6.27;;
10645;SDS011;5371;49.782;9.932;2024-01-07T11:29:54;8.87;;;5.77;;
10645;SDS011;5371;49.782;9.932;2024-01-07T11:32:22;9.13;;;6.07;;
10645;SDS011;5371;49.782;9.932;2024-01-07T11:34:50;8.50;;;5.77;;
10645;SDS011;5371;49.782;9.932;2024-01-07T11:37:19;9.57;;;6.40;;
10645;SDS011;5371;49.782;9.932;2024-01-07T11:39:48;11.47;;;6.03;;
10645;SDS011;5371;49.782;9.932;2024-01-07T11:42:17;9.20;;;5.90;;
10645;SDS011;5371;49.782;9.932;2024-01-07T11:44:45;10.67;;;6.40;;
10645;SDS011;5371;49.782;9.932;2024-01-07T11:47:12;10.13;;;6.20;;
10645;SDS011;5371;49.782;9.932;2024-01-07T11:49:40;12.87;;;6.27;;
10645;SDS011;5371;49.782;9.932;2024-01-07T11:52:07;7.37;;;5.87;;
10645;SDS011;5371;49.782;9.932;2024-01-07T11:54:36;11.53;;;6.27;;
10645;SDS011;5371;49.782;9.932;2024-01-07T11:57:04;11.77;;;5.93;;
10645;SDS011;5371;49.782;9.932;2024-01-07T11:59:32;8.40;;;5.73;;
10645;SDS011;5371;49.782;9.932;2024-01-07T12:02:00;8.20;;;5.57;;
10645;SDS011;5371;49.782;9.932;2024-01-07T12:04:29;10.33;;;5.87;;
10645;SDS011;5371;49.782;9.932;2024-01-07T12:06:56;9.17;;;6.17;;
10645;SDS011;5371;49.782;9.932;2024-01-07T12:09:23;9.87;;;6.47;;
10645;SDS011;5371;49.782;9.932;2024-01-07T12:11:50;9.17;;;6.00;;
10645;SDS011;5371;49.782;9.932;2024-01-07T12:14:19;10.13;;;5.70;;
10645;SDS011;5371;49.782;9.932;2024-01-07T12:16:47;9.77;;;6.47;;
10645;SDS011;5371;49.782;9.932;2024-01-07T12:19:14;11.40;;;6.63;;
10645;SDS011;5371;49.782;9.932;2024-01-07T12:21:41;8.27;;;5.50;;
10645;SDS011;5371;49.782;9.932;2024-01-07T12:24:08;10.47;;;6.00;;
10645;SDS011;5371;49.782;9.932;2024-01-07T12:26:35;9.67;;;6.20;;
10645;SDS011;5371;49.782;9.932;2024-01-07T12:29:03;9.47;;;6.33;;
10645;SDS011;5371;49.782;9.932;2024-01-07T12:31:33;9.93;;;6.10;;
